Mestre Emiliano — CUSN — position and weather

sailwx.info

Track history (hours):
 
Tides and Currents Weather Stations Pressure Air Temp Water Temp Dewpoint Dewpoint Depression Visibility Wind Speed Wind Dir Waves Ship Positions

Mestre Emiliano

Last reported at 2018-Jul-23 11:01 UTC. Time now 2018-Jul-23 15:40 UTC.
Position N 36°49' W 008°43'.

Length 24 m.

Type: Fishing. MMSI: 263237000.

Date/timePositionNaut miles runAvg speedWind from/ knotsBaromVisibWave heightAir tempDewpointWater temp
2018-Jul-23 11:01N 36°49' W 008°43'0 3.1
2018-Jul-23 10:58N 36°49' W 008°43'2 3.1
2018-Jul-23 10:19N 36°48' W 008°41'1 1.9
2018-Jul-23 09:52N 36°48' W 008°40'0 0.1
2018-Jul-23 09:29N 36°48' W 008°40'1 3.0
2018-Jul-23 09:00N 36°48' W 008°41'1 3.0
2018-Jul-23 08:30N 36°49' W 008°43'2 3.1
2018-Jul-23 08:00N 36°49' W 008°45'2 3.0
2018-Jul-23 07:23N 36°49' W 008°47'24 4.6
2018-Jul-23 02:15N 36°51' W 009°17'16 3.5
2018-Jul-22 21:33N 36°60' W 009°00'1 8.4
2018-Jul-22 21:28N 36°60' W 008°60'3 7.1
2018-Jul-22 20:59N 37°01' W 008°55'0 0.3
2018-Jul-22 20:18N 37°01' W 008°56'0 0.0
2018-Jul-22 19:50N 37°01' W 008°56'0 0.0
2018-Jul-22 19:24N 37°01' W 008°56'0 0.0
2018-Jul-22 18:52N 37°01' W 008°56'0 0.0
2018-Jul-22 18:28N 37°01' W 008°56'0 0.0
2018-Jul-22 17:58N 37°01' W 008°56'0 0.0
2018-Jul-22 16:50N 37°01' W 008°56'15 3.0
2018-Jul-22 11:46N 36°49' W 008°44'1 3.0
2018-Jul-22 11:27N 36°48' W 008°43'3 1.6
2018-Jul-22 09:55N 36°48' W 008°40'1 3.1
2018-Jul-22 09:26N 36°48' W 008°42'1 3.0
2018-Jul-22 09:00N 36°48' W 008°43'2 3.0
2018-Jul-22 08:22N 36°48' W 008°46'18 1.8
2018-Jul-21 22:23N 36°50' W 009°08'9 4.7
2018-Jul-21 20:25N 36°48' W 008°57'8 2.6
2018-Jul-21 17:07N 36°48' W 008°46'0 3.1
2018-Jul-21 16:58N 36°48' W 008°46'5 1.2
2018-Jul-21 13:01N 36°48' W 008°40'1 3.0
2018-Jul-21 12:50N 36°48' W 008°41'1 3.1
2018-Jul-21 12:30N 36°48' W 008°42'1 3.0
2018-Jul-21 12:00N 36°48' W 008°44'9 0.2
2018-Jul-19 22:40N 36°56' W 008°50'2 9.5
2018-Jul-19 22:27N 36°58' W 008°52'4 9.6
2018-Jul-19 22:00N 37°01' W 008°55'0 0.5
2018-Jul-19 21:27N 37°01' W 008°56'0 0.0
2018-Jul-19 21:00N 37°01' W 008°56'0 0.0
2018-Jul-19 20:28N 37°01' W 008°56'0 0.0
2018-Jul-19 19:58N 37°01' W 008°56'0 0.0
2018-Jul-19 19:25N 37°01' W 008°56'0 0.0
2018-Jul-19 18:24N 37°01' W 008°56'0 0.0
2018-Jul-19 17:59N 37°01' W 008°56'16 0.7
2018-Jul-18 20:52N 36°47' W 008°47'2 4.3
2018-Jul-18 20:27N 36°47' W 008°44'3 0.4
2018-Jul-18 13:03N 36°47' W 008°41'0 3.0
2018-Jul-18 12:58N 36°47' W 008°42'1 3.0
2018-Jul-18 12:31N 36°48' W 008°43'2 3.1
2018-Jul-18 11:59N 36°48' W 008°45'1 0.2
2018-Jul-18 08:28N 36°48' W 008°44'27 3.3
2018-Jul-18 00:10N 36°47' W 008°10'1 1.1
2018-Jul-17 23:26N 36°47' W 008°11'2 2.9
2018-Jul-17 22:36N 36°47' W 008°14'0 2.9
2018-Jul-17 22:31N 36°47' W 008°15'2 2.8
2018-Jul-17 21:53N 36°47' W 008°17'1 3.0
2018-Jul-17 21:28N 36°47' W 008°18'1 2.9
2018-Jul-17 21:00N 36°46' W 008°20'1 2.8
2018-Jul-17 20:30N 36°47' W 008°22'1 2.9
2018-Jul-17 20:01N 36°47' W 008°24'2 3.2
2018-Jul-17 19:30N 36°47' W 008°26'1 2.7
2018-Jul-17 19:00N 36°47' W 008°27'5 9.8
2018-Jul-17 18:31N 36°52' W 008°28'5 9.5
2018-Jul-17 18:01N 36°57' W 008°30'5 9.4
2018-Jul-17 17:30N 37°01' W 008°31'5 9.3
2018-Jul-17 17:01N 37°06' W 008°32'2 4.1
2018-Jul-17 16:30N 37°08' W 008°32'0 0.0
2018-Jul-17 16:00N 37°08' W 008°32'0 0.0
2018-Jul-17 15:30N 37°08' W 008°32'0 0.0
2018-Jul-17 14:59N 37°08' W 008°32'0 0.0
2018-Jul-17 14:27N 37°08' W 008°32'0 0.0
2018-Jul-17 14:00N 37°08' W 008°32'0 0.0
2018-Jul-17 13:31N 37°08' W 008°32'0 0.0
2018-Jul-17 13:00N 37°08' W 008°32'0 0.0
2018-Jul-17 12:30N 37°08' W 008°32'0 0.0
2018-Jul-17 12:01N 37°08' W 008°32'0 0.0
2018-Jul-17 11:31N 37°08' W 008°32'0 0.0
2018-Jul-17 11:00N 37°08' W 008°32'0 0.0
2018-Jul-17 10:30N 37°08' W 008°32'0 0.0
2018-Jul-17 10:00N 37°08' W 008°32'0 0.1
2018-Jul-17 09:30N 37°08' W 008°32'0 0.1
2018-Jul-17 09:01N 37°08' W 008°32'0 0.0
2018-Jul-17 08:31N 37°08' W 008°32'0 0.0
2018-Jul-17 08:01N 37°08' W 008°32'0 0.0
2018-Jul-17 07:31N 37°08' W 008°32'0 0.1
2018-Jul-17 06:59N 37°08' W 008°32'3 6.4
2018-Jul-17 06:30N 37°05' W 008°33'4 8.2
2018-Jul-17 06:01N 37°01' W 008°35'4 8.1
2018-Jul-17 05:30N 36°58' W 008°37'5 8.0
2018-Jul-17 04:52N 36°53' W 008°40'3 7.5
2018-Jul-17 04:26N 36°50' W 008°42'4 8.0
2018-Jul-17 03:55N 36°46' W 008°44'0 0.6
2018-Jul-17 03:17N 36°47' W 008°44'1 2.7
2018-Jul-17 02:57N 36°47' W 008°45'16 0.5
2018-Jul-15 18:34N 37°01' W 008°56'0 0.0
2018-Jul-15 18:25N 37°01' W 008°56'0 0.0
2018-Jul-15 18:00N 37°01' W 008°56'0 0.0
2018-Jul-15 17:29N 37°01' W 008°56'0 0.0
2018-Jul-15 17:00N 37°01' W 008°56'0 0.0
2018-Jul-15 16:27N 37°01' W 008°56'18 1.6
2018-Jul-15 04:58N 36°47' W 008°40'1 2.5
2018-Jul-15 04:29N 36°46' W 008°41'1 1.5
2018-Jul-15 04:00N 36°46' W 008°42'1 2.7
2018-Jul-15 03:30N 36°46' W 008°44'1 2.8
2018-Jul-15 03:00N 36°47' W 008°46'1 2.8
2018-Jul-15 02:30N 36°47' W 008°47'1 0.0
2018-Jul-13 15:10N 36°47' W 008°46'1 2.9
2018-Jul-13 14:54N 36°47' W 008°45'1 2.9
2018-Jul-13 14:30N 36°47' W 008°44'  
Track history (hours):
 
Tides and Currents Weather Stations Pressure Air Temp Water Temp Dewpoint Dewpoint Depression Visibility Wind Speed Wind Dir Waves Ship Positions

Mestre Emiliano

Last reported at 2018-Jul-23 11:01 UTC. Time now 2018-Jul-23 15:40 UTC.
Position N 36°49' W 008°43'.

Length 24 m.

Type: Fishing. MMSI: 263237000.

Date/timePositionNaut miles runAvg speedWind from/ knotsBaromVisibWave heightAir tempDewpointWater temp
2018-Jul-23 11:01N 36°49' W 008°43'0 3.1
2018-Jul-23 10:58N 36°49' W 008°43'2 3.1
2018-Jul-23 10:19N 36°48' W 008°41'1 1.9
2018-Jul-23 09:52N 36°48' W 008°40'0 0.1
2018-Jul-23 09:29N 36°48' W 008°40'1 3.0
2018-Jul-23 09:00N 36°48' W 008°41'1 3.0
2018-Jul-23 08:30N 36°49' W 008°43'2 3.1
2018-Jul-23 08:00N 36°49' W 008°45'2 3.0
2018-Jul-23 07:23N 36°49' W 008°47'24 4.6
2018-Jul-23 02:15N 36°51' W 009°17'16 3.5
2018-Jul-22 21:33N 36°60' W 009°00'1 8.4
2018-Jul-22 21:28N 36°60' W 008°60'3 7.1
2018-Jul-22 20:59N 37°01' W 008°55'0 0.3
2018-Jul-22 20:18N 37°01' W 008°56'0 0.0
2018-Jul-22 19:50N 37°01' W 008°56'0 0.0
2018-Jul-22 19:24N 37°01' W 008°56'0 0.0
2018-Jul-22 18:52N 37°01' W 008°56'0 0.0
2018-Jul-22 18:28N 37°01' W 008°56'0 0.0
2018-Jul-22 17:58N 37°01' W 008°56'0 0.0
2018-Jul-22 16:50N 37°01' W 008°56'15 3.0
2018-Jul-22 11:46N 36°49' W 008°44'1 3.0
2018-Jul-22 11:27N 36°48' W 008°43'3 1.6
2018-Jul-22 09:55N 36°48' W 008°40'1 3.1
2018-Jul-22 09:26N 36°48' W 008°42'1 3.0
2018-Jul-22 09:00N 36°48' W 008°43'2 3.0
2018-Jul-22 08:22N 36°48' W 008°46'18 1.8
2018-Jul-21 22:23N 36°50' W 009°08'9 4.7
2018-Jul-21 20:25N 36°48' W 008°57'8 2.6
2018-Jul-21 17:07N 36°48' W 008°46'0 3.1
2018-Jul-21 16:58N 36°48' W 008°46'5 1.2
2018-Jul-21 13:01N 36°48' W 008°40'1 3.0
2018-Jul-21 12:50N 36°48' W 008°41'1 3.1
2018-Jul-21 12:30N 36°48' W 008°42'1 3.0
2018-Jul-21 12:00N 36°48' W 008°44'9 0.2
2018-Jul-19 22:40N 36°56' W 008°50'2 9.5
2018-Jul-19 22:27N 36°58' W 008°52'4 9.6
2018-Jul-19 22:00N 37°01' W 008°55'0 0.5
2018-Jul-19 21:27N 37°01' W 008°56'0 0.0
2018-Jul-19 21:00N 37°01' W 008°56'0 0.0
2018-Jul-19 20:28N 37°01' W 008°56'0 0.0
2018-Jul-19 19:58N 37°01' W 008°56'0 0.0
2018-Jul-19 19:25N 37°01' W 008°56'0 0.0
2018-Jul-19 18:24N 37°01' W 008°56'0 0.0
2018-Jul-19 17:59N 37°01' W 008°56'16 0.7
2018-Jul-18 20:52N 36°47' W 008°47'2 4.3
2018-Jul-18 20:27N 36°47' W 008°44'3 0.4
2018-Jul-18 13:03N 36°47' W 008°41'0 3.0
2018-Jul-18 12:58N 36°47' W 008°42'1 3.0
2018-Jul-18 12:31N 36°48' W 008°43'2 3.1
2018-Jul-18 11:59N 36°48' W 008°45'1 0.2
2018-Jul-18 08:28N 36°48' W 008°44'27 3.3
2018-Jul-18 00:10N 36°47' W 008°10'1 1.1
2018-Jul-17 23:26N 36°47' W 008°11'2 2.9
2018-Jul-17 22:36N 36°47' W 008°14'0 2.9
2018-Jul-17 22:31N 36°47' W 008°15'2 2.8
2018-Jul-17 21:53N 36°47' W 008°17'1 3.0
2018-Jul-17 21:28N 36°47' W 008°18'1 2.9
2018-Jul-17 21:00N 36°46' W 008°20'1 2.8
2018-Jul-17 20:30N 36°47' W 008°22'1 2.9
2018-Jul-17 20:01N 36°47' W 008°24'2 3.2
2018-Jul-17 19:30N 36°47' W 008°26'1 2.7
2018-Jul-17 19:00N 36°47' W 008°27'5 9.8
2018-Jul-17 18:31N 36°52' W 008°28'5 9.5
2018-Jul-17 18:01N 36°57' W 008°30'5 9.4
2018-Jul-17 17:30N 37°01' W 008°31'5 9.3
2018-Jul-17 17:01N 37°06' W 008°32'2 4.1
2018-Jul-17 16:30N 37°08' W 008°32'0 0.0
2018-Jul-17 16:00N 37°08' W 008°32'0 0.0
2018-Jul-17 15:30N 37°08' W 008°32'0 0.0
2018-Jul-17 14:59N 37°08' W 008°32'0 0.0
2018-Jul-17 14:27N 37°08' W 008°32'0 0.0
2018-Jul-17 14:00N 37°08' W 008°32'0 0.0
2018-Jul-17 13:31N 37°08' W 008°32'0 0.0
2018-Jul-17 13:00N 37°08' W 008°32'0 0.0
2018-Jul-17 12:30N 37°08' W 008°32'0 0.0
2018-Jul-17 12:01N 37°08' W 008°32'0 0.0
2018-Jul-17 11:31N 37°08' W 008°32'0 0.0
2018-Jul-17 11:00N 37°08' W 008°32'0 0.0
2018-Jul-17 10:30N 37°08' W 008°32'0 0.0
2018-Jul-17 10:00N 37°08' W 008°32'0 0.1
2018-Jul-17 09:30N 37°08' W 008°32'0 0.1
2018-Jul-17 09:01N 37°08' W 008°32'0 0.0
2018-Jul-17 08:31N 37°08' W 008°32'0 0.0
2018-Jul-17 08:01N 37°08' W 008°32'0 0.0
2018-Jul-17 07:31N 37°08' W 008°32'0 0.1
2018-Jul-17 06:59N 37°08' W 008°32'3 6.4
2018-Jul-17 06:30N 37°05' W 008°33'4 8.2
2018-Jul-17 06:01N 37°01' W 008°35'4 8.1
2018-Jul-17 05:30N 36°58' W 008°37'5 8.0
2018-Jul-17 04:52N 36°53' W 008°40'3 7.5
2018-Jul-17 04:26N 36°50' W 008°42'4 8.0
2018-Jul-17 03:55N 36°46' W 008°44'0 0.6
2018-Jul-17 03:17N 36°47' W 008°44'1 2.7
2018-Jul-17 02:57N 36°47' W 008°45'16 0.5
2018-Jul-15 18:34N 37°01' W 008°56'0 0.0
2018-Jul-15 18:25N 37°01' W 008°56'0 0.0
2018-Jul-15 18:00N 37°01' W 008°56'0 0.0
2018-Jul-15 17:29N 37°01' W 008°56'0 0.0
2018-Jul-15 17:00N 37°01' W 008°56'0 0.0
2018-Jul-15 16:27N 37°01' W 008°56'18 1.6
2018-Jul-15 04:58N 36°47' W 008°40'1 2.5
2018-Jul-15 04:29N 36°46' W 008°41'1 1.5
2018-Jul-15 04:00N 36°46' W 008°42'1 2.7
2018-Jul-15 03:30N 36°46' W 008°44'1 2.8
2018-Jul-15 03:00N 36°47' W 008°46'1 2.8
2018-Jul-15 02:30N 36°47' W 008°47'1 0.0
2018-Jul-13 15:10N 36°47' W 008°46'1 2.9
2018-Jul-13 14:54N 36°47' W 008°45'1 2.9
2018-Jul-13 14:30N 36°47' W 008°44'  

Dump ship's entire track history